Airfield :
LOGIN :

Register | Disclaimer

   EN    FR    IT 

 










Legend :    VFR   Marginal VFR   IFR   Intensive IFR   Very Intensive IFR
Visi :
Ceiling :
>= 8 km
>= 3000ft
5 to 8 km
1000 to 3000 ft
1500m to 5 km
500 to 1000 ft
800 to 1500m
200 to 500 ft
< 800m
< 200 ft
Symbols :   Thunderstorms  Fog  Heavy snow  Heavy precipitations  Wind > 20 kt
SIGMETs :     Misc.  Thunderstorms  Icing  Turbulence  Mountain Waves  Volcanic Ashes






- Airport Elevation : 616 ft
- IATA code : PUF


LFBP - Pau

CURRENT METAR :
  • 221330Z AUTO 33008KT 300V360 9999 BKN021 BKN027 BKN035 15/11 Q1023 TEMPO 4000 SHRA BKN020TCU

EXPIRED METARs :
  • 221300Z AUTO 30007KT 9999 SCT020 BKN027 OVC032 15/12 Q1023 TEMPO 4000 SHRA BKN020TCU
  • 221230Z AUTO VRB03KT 9999 BKN014 BKN023 BKN032 16/13 Q1023 TEMPO 4000 SHRA BKN020TCU
  • 221200Z AUTO 31004KT 280V350 9999 FEW011 BKN019 BKN030 14/13 Q1023 TEMPO 4000 SHRA BKN020TCU
  • 221130Z AUTO 33007KT 9999 FEW008 BKN016 BKN021 14/13 Q1023 TEMPO 4000 SHRA BKN020TCU BECMG 27010KT
  • 221100Z AUTO 28003KT 240V310 9999 SCT016 BKN024 OVC034 15/12 Q1023 TEMPO 4000 SHRA BKN020TCU
  • 221030Z AUTO 29004KT 250V340 9999 BKN018 BKN026 OVC033 15/12 Q1023 TEMPO 4000 SHRA BKN020TCU

TAF TAF LFBP
Valid from the 22 at 12:00 until the 23 at 12:00 UTC


221100Z 2212/2312 27010KT 9999 BKN030
TEMPO 2212/2220 4000 SHRA BKN020TCU
BECMG 2222/2224 VRB03KT CAVOK
TEMPO 2300/2308 0300 FG VV///



MET'MAP, your aeronautical weather chart ! - Copyright ORBIFLY December 2007 - Disclaimer

ORBIFLY MET'MAP TEAM :

Programming & Development : Alexandra Zaïnal
Concept & original design : Baudouin d'Aumeries
Assistance for programming : Marc-Olivier Méhu
Technical & hardware support : Manuel Goepfert

Contact : metmap@orbifly.com




SOURCES & CREDITS :

   NOAA